sensor_id;sensor_type;location;lat;lon;timestamp;P1;durP1;ratioP1;P2;durP2;ratioP2
84670;SDS011;74898;42.716;23.624;2024-02-26T00:01:26;12.05;;;6.88;;
84670;SDS011;74898;42.716;23.624;2024-02-26T00:03:52;13.13;;;6.35;;
84670;SDS011;74898;42.716;23.624;2024-02-26T00:06:19;9.55;;;6.00;;
84670;SDS011;74898;42.716;23.624;2024-02-26T00:08:44;12.18;;;6.53;;
84670;SDS011;74898;42.716;23.624;2024-02-26T00:11:10;14.00;;;6.80;;
84670;SDS011;74898;42.716;23.624;2024-02-26T00:13:36;11.98;;;5.95;;
84670;SDS011;74898;42.716;23.624;2024-02-26T00:16:02;12.23;;;6.57;;
84670;SDS011;74898;42.716;23.624;2024-02-26T00:18:28;12.13;;;6.50;;
84670;SDS011;74898;42.716;23.624;2024-02-26T00:20:54;11.55;;;6.40;;
84670;SDS011;74898;42.716;23.624;2024-02-26T00:23:20;15.07;;;6.97;;
84670;SDS011;74898;42.716;23.624;2024-02-26T00:25:45;11.85;;;7.25;;
84670;SDS011;74898;42.716;23.624;2024-02-26T00:28:11;16.20;;;7.43;;
84670;SDS011;74898;42.716;23.624;2024-02-26T00:30:38;17.13;;;7.47;;
84670;SDS011;74898;42.716;23.624;2024-02-26T00:33:04;17.40;;;7.28;;
84670;SDS011;74898;42.716;23.624;2024-02-26T00:35:29;14.73;;;7.72;;
84670;SDS011;74898;42.716;23.624;2024-02-26T00:37:55;19.60;;;7.97;;
84670;SDS011;74898;42.716;23.624;2024-02-26T00:40:20;13.55;;;7.50;;
84670;SDS011;74898;42.716;23.624;2024-02-26T00:42:46;14.50;;;7.28;;
84670;SDS011;74898;42.716;23.624;2024-02-26T00:45:13;16.17;;;7.90;;
84670;SDS011;74898;42.716;23.624;2024-02-26T00:47:39;14.93;;;7.30;;
84670;SDS011;74898;42.716;23.624;2024-02-26T00:50:06;14.88;;;8.07;;
84670;SDS011;74898;42.716;23.624;2024-02-26T00:52:33;16.85;;;7.95;;
84670;SDS011;74898;42.716;23.624;2024-02-26T00:54:59;14.65;;;7.60;;
84670;SDS011;74898;42.716;23.624;2024-02-26T00:57:24;14.90;;;8.52;;
84670;SDS011;74898;42.716;23.624;2024-02-26T00:59:50;16.15;;;8.35;;
84670;SDS011;74898;42.716;23.624;2024-02-26T01:02:16;13.68;;;7.72;;
84670;SDS011;74898;42.716;23.624;2024-02-26T01:04:41;16.50;;;8.40;;
84670;SDS011;74898;42.716;23.624;2024-02-26T01:07:07;17.70;;;7.45;;
84670;SDS011;74898;42.716;23.624;2024-02-26T01:09:32;15.27;;;7.85;;
84670;SDS011;74898;42.716;23.624;2024-02-26T01:11:58;14.10;;;7.40;;
84670;SDS011;74898;42.716;23.624;2024-02-26T01:14:23;19.17;;;7.72;;
84670;SDS011;74898;42.716;23.624;2024-02-26T01:16:49;14.82;;;7.05;;
84670;SDS011;74898;42.716;23.624;2024-02-26T01:19:14;15.23;;;7.60;;
84670;SDS011;74898;42.716;23.624;2024-02-26T01:21:40;14.98;;;7.97;;
84670;SDS011;74898;42.716;23.624;2024-02-26T01:24:06;13.63;;;7.28;;
84670;SDS011;74898;42.716;23.624;2024-02-26T01:26:32;11.95;;;6.68;;
84670;SDS011;74898;42.716;23.624;2024-02-26T01:28:57;19.92;;;7.22;;
84670;SDS011;74898;42.716;23.624;2024-02-26T01:31:23;14.38;;;6.60;;
84670;SDS011;74898;42.716;23.624;2024-02-26T01:33:49;13.25;;;6.82;;
84670;SDS011;74898;42.716;23.624;2024-02-26T01:36:14;15.82;;;6.93;;
84670;SDS011;74898;42.716;23.624;2024-02-26T01:38:40;13.07;;;7.13;;
84670;SDS011;74898;42.716;23.624;2024-02-26T01:41:05;15.70;;;7.32;;
84670;SDS011;74898;42.716;23.624;2024-02-26T01:43:31;12.38;;;6.70;;
84670;SDS011;74898;42.716;23.624;2024-02-26T01:45:57;11.25;;;6.50;;
84670;SDS011;74898;42.716;23.624;2024-02-26T01:48:23;13.20;;;7.05;;
84670;SDS011;74898;42.716;23.624;2024-02-26T01:50:49;13.35;;;7.25;;
84670;SDS011;74898;42.716;23.624;2024-02-26T01:53:15;14.32;;;7.63;;
84670;SDS011;74898;42.716;23.624;2024-02-26T01:55:42;11.40;;;6.93;;
84670;SDS011;74898;42.716;23.624;2024-02-26T01:58:08;12.75;;;6.53;;
84670;SDS011;74898;42.716;23.624;2024-02-26T02:00:34;14.27;;;6.93;;
84670;SDS011;74898;42.716;23.624;2024-02-26T02:03:00;24.13;;;12.80;;
84670;SDS011;74898;42.716;23.624;2024-02-26T02:05:27;26.20;;;13.73;;
84670;SDS011;74898;42.716;23.624;2024-02-26T02:07:53;28.20;;;13.60;;
84670;SDS011;74898;42.716;23.624;2024-02-26T02:10:19;18.33;;;9.07;;
84670;SDS011;74898;42.716;23.624;2024-02-26T02:12:48;10.65;;;6.55;;
84670;SDS011;74898;42.716;23.624;2024-02-26T02:15:14;11.10;;;5.95;;
84670;SDS011;74898;42.716;23.624;2024-02-26T02:17:39;8.73;;;5.97;;
84670;SDS011;74898;42.716;23.624;2024-02-26T02:20:24;9.10;;;5.57;;
84670;SDS011;74898;42.716;23.624;2024-02-26T02:22:59;12.80;;;5.82;;
84670;SDS011;74898;42.716;23.624;2024-02-26T02:25:24;8.65;;;5.70;;
84670;SDS011;74898;42.716;23.624;2024-02-26T02:27:50;11.18;;;6.13;;
84670;SDS011;74898;42.716;23.624;2024-02-26T02:32:44;9.02;;;5.55;;
84670;SDS011;74898;42.716;23.624;2024-02-26T02:35:10;10.50;;;5.82;;
84670;SDS011;74898;42.716;23.624;2024-02-26T02:37:35;11.50;;;6.45;;
84670;SDS011;74898;42.716;23.624;2024-02-26T02:40:02;10.20;;;5.60;;
84670;SDS011;74898;42.716;23.624;2024-02-26T02:42:28;8.93;;;5.35;;
84670;SDS011;74898;42.716;23.624;2024-02-26T02:44:54;10.35;;;5.85;;
84670;SDS011;74898;42.716;23.624;2024-02-26T02:47:20;10.55;;;5.93;;
84670;SDS011;74898;42.716;23.624;2024-02-26T02:49:45;10.48;;;5.88;;
84670;SDS011;74898;42.716;23.624;2024-02-26T02:52:11;9.57;;;5.80;;
84670;SDS011;74898;42.716;23.624;2024-02-26T02:54:36;10.77;;;5.13;;
84670;SDS011;74898;42.716;23.624;2024-02-26T02:57:05;7.13;;;5.18;;
84670;SDS011;74898;42.716;23.624;2024-02-26T02:59:31;8.68;;;5.35;;
84670;SDS011;74898;42.716;23.624;2024-02-26T03:01:56;11.45;;;6.15;;
84670;SDS011;74898;42.716;23.624;2024-02-26T03:04:21;11.32;;;5.95;;
84670;SDS011;74898;42.716;23.624;2024-02-26T03:06:47;11.48;;;6.43;;
84670;SDS011;74898;42.716;23.624;2024-02-26T03:09:13;9.63;;;4.97;;
84670;SDS011;74898;42.716;23.624;2024-02-26T03:11:38;6.93;;;4.63;;
84670;SDS011;74898;42.716;23.624;2024-02-26T03:14:04;10.13;;;5.47;;
84670;SDS011;74898;42.716;23.624;2024-02-26T03:16:31;10.93;;;5.50;;
84670;SDS011;74898;42.716;23.624;2024-02-26T03:18:57;14.20;;;7.05;;
84670;SDS011;74898;42.716;23.624;2024-02-26T03:21:24;13.65;;;6.75;;
84670;SDS011;74898;42.716;23.624;2024-02-26T03:23:50;12.48;;;5.97;;
84670;SDS011;74898;42.716;23.624;2024-02-26T03:26:16;7.75;;;5.53;;
84670;SDS011;74898;42.716;23.624;2024-02-26T03:28:41;16.08;;;8.10;;
84670;SDS011;74898;42.716;23.624;2024-02-26T03:31:07;19.92;;;10.18;;
84670;SDS011;74898;42.716;23.624;2024-02-26T03:33:33;16.58;;;10.93;;
84670;SDS011;74898;42.716;23.624;2024-02-26T03:35:59;18.33;;;9.73;;
84670;SDS011;74898;42.716;23.624;2024-02-26T03:38:24;17.75;;;10.18;;
84670;SDS011;74898;42.716;23.624;2024-02-26T03:40:50;19.00;;;11.15;;
84670;SDS011;74898;42.716;23.624;2024-02-26T03:43:16;24.88;;;12.50;;
84670;SDS011;74898;42.716;23.624;2024-02-26T03:45:42;20.80;;;11.13;;
84670;SDS011;74898;42.716;23.624;2024-02-26T03:48:07;19.77;;;10.70;;
84670;SDS011;74898;42.716;23.624;2024-02-26T03:50:33;21.17;;;11.20;;
84670;SDS011;74898;42.716;23.624;2024-02-26T03:52:59;22.58;;;12.18;;
84670;SDS011;74898;42.716;23.624;2024-02-26T03:55:25;21.80;;;11.63;;
84670;SDS011;74898;42.716;23.624;2024-02-26T04:00:19;20.80;;;11.07;;
84670;SDS011;74898;42.716;23.624;2024-02-26T04:02:46;20.15;;;9.93;;
84670;SDS011;74898;42.716;23.624;2024-02-26T04:05:12;19.40;;;10.68;;
84670;SDS011;74898;42.716;23.624;2024-02-26T04:07:38;22.77;;;10.98;;
84670;SDS011;74898;42.716;23.624;2024-02-26T04:10:08;18.08;;;10.30;;
84670;SDS011;74898;42.716;23.624;2024-02-26T04:12:41;23.13;;;9.90;;
84670;SDS011;74898;42.716;23.624;2024-02-26T04:15:07;21.63;;;10.93;;
84670;SDS011;74898;42.716;23.624;2024-02-26T04:17:34;21.05;;;11.05;;
84670;SDS011;74898;42.716;23.624;2024-02-26T04:20:00;18.17;;;11.27;;
84670;SDS011;74898;42.716;23.624;2024-02-26T04:22:25;22.17;;;10.95;;
84670;SDS011;74898;42.716;23.624;2024-02-26T04:24:51;19.30;;;11.77;;
84670;SDS011;74898;42.716;23.624;2024-02-26T04:27:16;20.85;;;11.40;;
84670;SDS011;74898;42.716;23.624;2024-02-26T04:29:42;24.75;;;12.50;;
84670;SDS011;74898;42.716;23.624;2024-02-26T04:32:07;21.52;;;10.93;;
84670;SDS011;74898;42.716;23.624;2024-02-26T04:34:33;20.80;;;10.93;;
84670;SDS011;74898;42.716;23.624;2024-02-26T04:36:58;21.15;;;10.18;;
84670;SDS011;74898;42.716;23.624;2024-02-26T04:39:24;17.35;;;9.38;;
84670;SDS011;74898;42.716;23.624;2024-02-26T04:41:49;20.75;;;9.43;;
84670;SDS011;74898;42.716;23.624;2024-02-26T04:44:15;15.82;;;7.53;;
84670;SDS011;74898;42.716;23.624;2024-02-26T04:46:40;15.10;;;7.20;;
84670;SDS011;74898;42.716;23.624;2024-02-26T04:49:06;18.23;;;7.32;;
84670;SDS011;74898;42.716;23.624;2024-02-26T04:51:32;14.35;;;7.50;;
84670;SDS011;74898;42.716;23.624;2024-02-26T04:53:57;14.10;;;7.00;;
84670;SDS011;74898;42.716;23.624;2024-02-26T04:56:23;13.18;;;7.10;;
84670;SDS011;74898;42.716;23.624;2024-02-26T04:58:48;13.30;;;7.18;;
84670;SDS011;74898;42.716;23.624;2024-02-26T05:01:15;13.30;;;6.80;;
84670;SDS011;74898;42.716;23.624;2024-02-26T05:03:42;16.25;;;7.07;;
84670;SDS011;74898;42.716;23.624;2024-02-26T05:06:11;13.30;;;7.38;;
84670;SDS011;74898;42.716;23.624;2024-02-26T05:08:36;12.63;;;6.32;;
84670;SDS011;74898;42.716;23.624;2024-02-26T05:11:03;11.25;;;6.25;;
84670;SDS011;74898;42.716;23.624;2024-02-26T05:13:29;7.22;;;4.80;;
84670;SDS011;74898;42.716;23.624;2024-02-26T05:15:55;8.07;;;5.18;;
84670;SDS011;74898;42.716;23.624;2024-02-26T05:18:21;10.38;;;4.63;;
84670;SDS011;74898;42.716;23.624;2024-02-26T05:20:47;10.18;;;4.50;;
84670;SDS011;74898;42.716;23.624;2024-02-26T05:23:13;13.23;;;4.82;;
84670;SDS011;74898;42.716;23.624;2024-02-26T05:25:38;5.95;;;4.15;;
84670;SDS011;74898;42.716;23.624;2024-02-26T05:28:04;8.55;;;4.43;;
84670;SDS011;74898;42.716;23.624;2024-02-26T05:30:30;8.07;;;4.38;;
84670;SDS011;74898;42.716;23.624;2024-02-26T05:32:55;9.57;;;5.10;;
84670;SDS011;74898;42.716;23.624;2024-02-26T05:35:21;7.88;;;4.65;;
84670;SDS011;74898;42.716;23.624;2024-02-26T05:37:46;9.35;;;4.70;;
84670;SDS011;74898;42.716;23.624;2024-02-26T05:40:13;7.53;;;5.13;;
84670;SDS011;74898;42.716;23.624;2024-02-26T05:42:39;11.80;;;5.40;;
84670;SDS011;74898;42.716;23.624;2024-02-26T05:45:05;8.45;;;5.20;;
84670;SDS011;74898;42.716;23.624;2024-02-26T05:47:32;11.07;;;5.07;;
84670;SDS011;74898;42.716;23.624;2024-02-26T05:49:58;9.57;;;4.82;;
84670;SDS011;74898;42.716;23.624;2024-02-26T05:52:25;9.85;;;4.75;;
84670;SDS011;74898;42.716;23.624;2024-02-26T05:54:52;7.75;;;4.55;;
84670;SDS011;74898;42.716;23.624;2024-02-26T05:57:17;9.65;;;5.10;;
84670;SDS011;74898;42.716;23.624;2024-02-26T05:59:44;8.40;;;5.15;;
84670;SDS011;74898;42.716;23.624;2024-02-26T06:02:09;13.63;;;6.28;;
84670;SDS011;74898;42.716;23.624;2024-02-26T06:04:35;11.82;;;6.50;;
84670;SDS011;74898;42.716;23.624;2024-02-26T06:07:00;9.98;;;6.57;;
84670;SDS011;74898;42.716;23.624;2024-02-26T06:09:26;8.82;;;5.65;;
84670;SDS011;74898;42.716;23.624;2024-02-26T06:11:52;11.15;;;6.75;;
84670;SDS011;74898;42.716;23.624;2024-02-26T06:14:17;14.20;;;6.93;;
84670;SDS011;74898;42.716;23.624;2024-02-26T06:16:44;9.63;;;5.70;;
84670;SDS011;74898;42.716;23.624;2024-02-26T06:19:10;10.90;;;5.63;;
84670;SDS011;74898;42.716;23.624;2024-02-26T06:21:36;7.75;;;5.30;;
84670;SDS011;74898;42.716;23.624;2024-02-26T06:24:01;11.75;;;5.40;;
84670;SDS011;74898;42.716;23.624;2024-02-26T06:26:27;12.10;;;5.35;;
84670;SDS011;74898;42.716;23.624;2024-02-26T06:28:54;9.45;;;4.75;;
84670;SDS011;74898;42.716;23.624;2024-02-26T06:31:21;8.63;;;5.00;;
84670;SDS011;74898;42.716;23.624;2024-02-26T06:33:48;6.63;;;5.25;;
84670;SDS011;74898;42.716;23.624;2024-02-26T06:36:15;9.60;;;5.10;;
84670;SDS011;74898;42.716;23.624;2024-02-26T06:38:41;6.72;;;5.00;;
84670;SDS011;74898;42.716;23.624;2024-02-26T06:41:07;9.52;;;5.32;;
84670;SDS011;74898;42.716;23.624;2024-02-26T06:43:32;7.57;;;4.88;;
84670;SDS011;74898;42.716;23.624;2024-02-26T06:45:58;5.28;;;4.38;;
84670;SDS011;74898;42.716;23.624;2024-02-26T06:48:24;7.60;;;4.90;;
84670;SDS011;74898;42.716;23.624;2024-02-26T06:50:50;7.43;;;5.10;;
84670;SDS011;74898;42.716;23.624;2024-02-26T06:53:18;11.75;;;5.13;;
84670;SDS011;74898;42.716;23.624;2024-02-26T06:55:44;9.50;;;4.78;;
84670;SDS011;74898;42.716;23.624;2024-02-26T06:58:10;10.25;;;5.00;;
84670;SDS011;74898;42.716;23.624;2024-02-26T07:00:36;7.88;;;5.28;;
84670;SDS011;74898;42.716;23.624;2024-02-26T07:03:01;8.77;;;4.47;;
84670;SDS011;74898;42.716;23.624;2024-02-26T07:05:28;6.40;;;4.57;;
84670;SDS011;74898;42.716;23.624;2024-02-26T07:07:54;6.60;;;4.35;;
84670;SDS011;74898;42.716;23.624;2024-02-26T07:10:19;9.50;;;4.38;;
84670;SDS011;74898;42.716;23.624;2024-02-26T07:12:45;7.70;;;4.20;;
84670;SDS011;74898;42.716;23.624;2024-02-26T07:15:10;8.23;;;4.30;;
84670;SDS011;74898;42.716;23.624;2024-02-26T07:17:36;9.10;;;4.43;;
84670;SDS011;74898;42.716;23.624;2024-02-26T07:20:02;6.40;;;3.70;;
84670;SDS011;74898;42.716;23.624;2024-02-26T07:22:31;5.07;;;3.58;;
84670;SDS011;74898;42.716;23.624;2024-02-26T07:24:56;12.65;;;5.50;;
84670;SDS011;74898;42.716;23.624;2024-02-26T07:27:22;14.63;;;6.65;;
84670;SDS011;74898;42.716;23.624;2024-02-26T07:29:48;14.95;;;7.05;;
84670;SDS011;74898;42.716;23.624;2024-02-26T07:32:14;13.32;;;6.65;;
84670;SDS011;74898;42.716;23.624;2024-02-26T07:34:39;6.60;;;4.78;;
84670;SDS011;74898;42.716;23.624;2024-02-26T07:37:09;8.75;;;4.88;;
84670;SDS011;74898;42.716;23.624;2024-02-26T07:39:35;5.35;;;3.88;;
84670;SDS011;74898;42.716;23.624;2024-02-26T07:42:01;4.93;;;4.00;;
84670;SDS011;74898;42.716;23.624;2024-02-26T07:44:27;7.47;;;4.97;;
84670;SDS011;74898;42.716;23.624;2024-02-26T07:46:53;10.38;;;4.63;;
84670;SDS011;74898;42.716;23.624;2024-02-26T07:49:18;5.88;;;3.63;;
84670;SDS011;74898;42.716;23.624;2024-02-26T07:51:44;6.35;;;4.47;;
84670;SDS011;74898;42.716;23.624;2024-02-26T07:54:09;9.43;;;5.68;;
84670;SDS011;74898;42.716;23.624;2024-02-26T07:56:34;7.70;;;4.50;;
84670;SDS011;74898;42.716;23.624;2024-02-26T07:59:00;5.88;;;3.78;;
84670;SDS011;74898;42.716;23.624;2024-02-26T08:01:25;5.88;;;4.18;;
84670;SDS011;74898;42.716;23.624;2024-02-26T08:03:52;19.45;;;10.00;;
84670;SDS011;74898;42.716;23.624;2024-02-26T08:06:21;11.50;;;6.13;;
84670;SDS011;74898;42.716;23.624;2024-02-26T08:08:47;33.50;;;13.70;;
84670;SDS011;74898;42.716;23.624;2024-02-26T08:11:14;7.32;;;4.70;;
84670;SDS011;74898;42.716;23.624;2024-02-26T08:13:41;6.18;;;4.28;;
84670;SDS011;74898;42.716;23.624;2024-02-26T08:16:07;8.27;;;4.38;;
84670;SDS011;74898;42.716;23.624;2024-02-26T08:18:32;9.15;;;3.97;;
84670;SDS011;74898;42.716;23.624;2024-02-26T08:20:58;5.90;;;3.47;;
84670;SDS011;74898;42.716;23.624;2024-02-26T08:23:23;7.65;;;3.97;;
84670;SDS011;74898;42.716;23.624;2024-02-26T08:25:50;4.68;;;3.88;;
84670;SDS011;74898;42.716;23.624;2024-02-26T08:28:16;8.35;;;4.40;;
84670;SDS011;74898;42.716;23.624;2024-02-26T08:30:43;6.47;;;4.13;;
84670;SDS011;74898;42.716;23.624;2024-02-26T08:33:09;4.55;;;3.85;;
84670;SDS011;74898;42.716;23.624;2024-02-26T08:35:35;5.82;;;3.97;;
84670;SDS011;74898;42.716;23.624;2024-02-26T08:38:01;7.93;;;3.42;;
84670;SDS011;74898;42.716;23.624;2024-02-26T08:40:26;14.73;;;4.35;;
84670;SDS011;74898;42.716;23.624;2024-02-26T08:42:52;5.43;;;3.20;;
84670;SDS011;74898;42.716;23.624;2024-02-26T08:45:17;3.38;;;2.83;;
84670;SDS011;74898;42.716;23.624;2024-02-26T08:47:44;5.05;;;3.20;;
84670;SDS011;74898;42.716;23.624;2024-02-26T08:50:10;10.10;;;4.93;;
84670;SDS011;74898;42.716;23.624;2024-02-26T08:52:37;5.05;;;3.75;;
84670;SDS011;74898;42.716;23.624;2024-02-26T08:55:03;4.13;;;3.30;;
84670;SDS011;74898;42.716;23.624;2024-02-26T08:57:29;5.03;;;3.45;;
84670;SDS011;74898;42.716;23.624;2024-02-26T08:59:57;6.68;;;3.35;;
84670;SDS011;74898;42.716;23.624;2024-02-26T09:02:23;6.63;;;3.00;;
84670;SDS011;74898;42.716;23.624;2024-02-26T09:04:48;4.32;;;3.00;;
84670;SDS011;74898;42.716;23.624;2024-02-26T09:07:16;5.60;;;2.72;;
84670;SDS011;74898;42.716;23.624;2024-02-26T09:09:41;7.38;;;3.72;;
84670;SDS011;74898;42.716;23.624;2024-02-26T09:12:07;5.68;;;4.15;;
84670;SDS011;74898;42.716;23.624;2024-02-26T09:14:33;6.05;;;3.38;;
84670;SDS011;74898;42.716;23.624;2024-02-26T09:16:58;3.42;;;3.13;;
84670;SDS011;74898;42.716;23.624;2024-02-26T09:19:24;7.15;;;3.50;;
84670;SDS011;74898;42.716;23.624;2024-02-26T09:21:52;4.60;;;3.20;;
84670;SDS011;74898;42.716;23.624;2024-02-26T09:24:21;3.80;;;2.63;;
84670;SDS011;74898;42.716;23.624;2024-02-26T09:26:47;5.63;;;2.75;;
84670;SDS011;74898;42.716;23.624;2024-02-26T09:29:12;5.28;;;2.90;;
84670;SDS011;74898;42.716;23.624;2024-02-26T09:31:38;6.63;;;3.00;;
84670;SDS011;74898;42.716;23.624;2024-02-26T09:34:06;7.35;;;3.75;;
84670;SDS011;74898;42.716;23.624;2024-02-26T09:36:32;3.65;;;3.28;;
84670;SDS011;74898;42.716;23.624;2024-02-26T09:38:58;4.88;;;3.30;;
84670;SDS011;74898;42.716;23.624;2024-02-26T09:41:24;5.68;;;3.40;;
84670;SDS011;74898;42.716;23.624;2024-02-26T09:43:54;4.45;;;3.00;;
84670;SDS011;74898;42.716;23.624;2024-02-26T09:46:22;7.28;;;3.22;;
84670;SDS011;74898;42.716;23.624;2024-02-26T09:48:48;4.35;;;3.15;;
84670;SDS011;74898;42.716;23.624;2024-02-26T09:51:14;3.83;;;2.65;;
84670;SDS011;74898;42.716;23.624;2024-02-26T09:53:42;4.55;;;3.17;;
84670;SDS011;74898;42.716;23.624;2024-02-26T09:56:11;7.38;;;3.13;;
84670;SDS011;74898;42.716;23.624;2024-02-26T09:58:37;6.55;;;3.22;;
84670;SDS011;74898;42.716;23.624;2024-02-26T10:01:07;5.00;;;3.30;;
84670;SDS011;74898;42.716;23.624;2024-02-26T10:03:40;6.45;;;4.05;;
84670;SDS011;74898;42.716;23.624;2024-02-26T10:06:07;4.47;;;2.97;;
84670;SDS011;74898;42.716;23.624;2024-02-26T10:08:34;5.20;;;3.03;;
84670;SDS011;74898;42.716;23.624;2024-02-26T10:11:00;5.28;;;3.67;;
84670;SDS011;74898;42.716;23.624;2024-02-26T10:13:26;6.60;;;3.63;;
84670;SDS011;74898;42.716;23.624;2024-02-26T10:15:52;5.95;;;3.53;;
84670;SDS011;74898;42.716;23.624;2024-02-26T10:18:17;4.38;;;3.15;;
84670;SDS011;74898;42.716;23.624;2024-02-26T10:20:58;5.60;;;3.65;;
84670;SDS011;74898;42.716;23.624;2024-02-26T10:23:27;8.18;;;4.18;;
84670;SDS011;74898;42.716;23.624;2024-02-26T10:25:53;6.10;;;3.08;;
84670;SDS011;74898;42.716;23.624;2024-02-26T10:28:20;6.45;;;3.28;;
84670;SDS011;74898;42.716;23.624;2024-02-26T10:30:46;5.28;;;3.63;;
84670;SDS011;74898;42.716;23.624;2024-02-26T10:33:11;8.63;;;4.60;;
84670;SDS011;74898;42.716;23.624;2024-02-26T10:35:39;8.43;;;3.83;;
84670;SDS011;74898;42.716;23.624;2024-02-26T10:38:06;18.73;;;5.90;;
84670;SDS011;74898;42.716;23.624;2024-02-26T10:40:32;6.68;;;3.65;;
84670;SDS011;74898;42.716;23.624;2024-02-26T10:42:58;17.08;;;7.70;;
84670;SDS011;74898;42.716;23.624;2024-02-26T10:45:24;8.05;;;4.68;;
84670;SDS011;74898;42.716;23.624;2024-02-26T10:47:50;7.35;;;4.38;;
84670;SDS011;74898;42.716;23.624;2024-02-26T10:50:16;6.63;;;4.50;;
84670;SDS011;74898;42.716;23.624;2024-02-26T10:52:42;4.75;;;3.60;;
84670;SDS011;74898;42.716;23.624;2024-02-26T10:55:08;4.70;;;3.72;;
84670;SDS011;74898;42.716;23.624;2024-02-26T10:57:43;6.90;;;4.75;;
84670;SDS011;74898;42.716;23.624;2024-02-26T11:00:10;5.93;;;3.85;;
84670;SDS011;74898;42.716;23.624;2024-02-26T11:02:40;5.07;;;3.38;;
84670;SDS011;74898;42.716;23.624;2024-02-26T11:05:07;7.25;;;3.63;;
84670;SDS011;74898;42.716;23.624;2024-02-26T11:07:36;7.10;;;3.53;;
84670;SDS011;74898;42.716;23.624;2024-02-26T11:10:05;4.38;;;3.40;;
84670;SDS011;74898;42.716;23.624;2024-02-26T11:12:31;5.13;;;3.70;;
84670;SDS011;74898;42.716;23.624;2024-02-26T11:15:00;5.28;;;3.30;;
84670;SDS011;74898;42.716;23.624;2024-02-26T11:17:28;5.43;;;3.25;;
84670;SDS011;74898;42.716;23.624;2024-02-26T11:19:56;6.70;;;3.60;;
84670;SDS011;74898;42.716;23.624;2024-02-26T11:22:23;4.93;;;3.47;;
84670;SDS011;74898;42.716;23.624;2024-02-26T11:24:56;9.98;;;3.33;;
84670;SDS011;74898;42.716;23.624;2024-02-26T11:27:45;8.70;;;4.22;;
84670;SDS011;74898;42.716;23.624;2024-02-26T11:30:10;6.35;;;3.13;;
84670;SDS011;74898;42.716;23.624;2024-02-26T11:32:38;6.18;;;4.07;;
84670;SDS011;74898;42.716;23.624;2024-02-26T11:35:06;18.02;;;7.05;;
84670;SDS011;74898;42.716;23.624;2024-02-26T11:37:35;9.35;;;6.13;;
84670;SDS011;74898;42.716;23.624;2024-02-26T11:40:01;4.97;;;3.78;;
84670;SDS011;74898;42.716;23.624;2024-02-26T11:42:27;4.07;;;2.80;;
84670;SDS011;74898;42.716;23.624;2024-02-26T11:44:54;5.43;;;3.22;;
84670;SDS011;74898;42.716;23.624;2024-02-26T11:47:25;6.95;;;3.63;;
84670;SDS011;74898;42.716;23.624;2024-02-26T11:49:52;5.70;;;3.40;;
84670;SDS011;74898;42.716;23.624;2024-02-26T11:52:17;5.72;;;3.92;;
84670;SDS011;74898;42.716;23.624;2024-02-26T11:54:44;7.70;;;3.15;;
84670;SDS011;74898;42.716;23.624;2024-02-26T11:57:30;5.55;;;3.40;;
84670;SDS011;74898;42.716;23.624;2024-02-26T12:05:14;7.88;;;3.10;;
84670;SDS011;74898;42.716;23.624;2024-02-26T12:07:45;6.43;;;3.00;;
84670;SDS011;74898;42.716;23.624;2024-02-26T12:10:22;11.23;;;3.40;;
84670;SDS011;74898;42.716;23.624;2024-02-26T12:12:55;2.50;;;2.30;;
84670;SDS011;74898;42.716;23.624;2024-02-26T12:15:26;11.48;;;4.68;;
84670;SDS011;74898;42.716;23.624;2024-02-26T12:17:55;4.55;;;2.90;;
84670;SDS011;74898;42.716;23.624;2024-02-26T12:20:21;6.10;;;3.38;;
84670;SDS011;74898;42.716;23.624;2024-02-26T12:22:47;12.20;;;6.10;;
84670;SDS011;74898;42.716;23.624;2024-02-26T12:25:15;8.75;;;4.32;;
84670;SDS011;74898;42.716;23.624;2024-02-26T12:27:41;11.57;;;4.80;;
84670;SDS011;74898;42.716;23.624;2024-02-26T12:30:07;7.43;;;4.50;;
84670;SDS011;74898;42.716;23.624;2024-02-26T12:32:34;12.02;;;5.10;;
84670;SDS011;74898;42.716;23.624;2024-02-26T12:35:00;4.18;;;3.35;;
84670;SDS011;74898;42.716;23.624;2024-02-26T12:37:26;5.97;;;3.20;;
84670;SDS011;74898;42.716;23.624;2024-02-26T12:39:53;9.13;;;4.05;;
84670;SDS011;74898;42.716;23.624;2024-02-26T12:42:19;7.75;;;4.72;;
84670;SDS011;74898;42.716;23.624;2024-02-26T12:44:45;13.23;;;6.30;;
84670;SDS011;74898;42.716;23.624;2024-02-26T12:47:11;13.38;;;7.03;;
84670;SDS011;74898;42.716;23.624;2024-02-26T12:49:42;6.30;;;3.42;;
84670;SDS011;74898;42.716;23.624;2024-02-26T12:52:08;11.02;;;5.43;;
84670;SDS011;74898;42.716;23.624;2024-02-26T12:54:35;20.30;;;8.48;;
84670;SDS011;74898;42.716;23.624;2024-02-26T12:57:04;39.97;;;16.77;;
84670;SDS011;74898;42.716;23.624;2024-02-26T12:59:32;16.02;;;5.75;;
84670;SDS011;74898;42.716;23.624;2024-02-26T13:01:58;6.32;;;3.33;;
84670;SDS011;74898;42.716;23.624;2024-02-26T13:04:25;15.70;;;7.43;;
84670;SDS011;74898;42.716;23.624;2024-02-26T13:06:53;9.63;;;6.20;;
84670;SDS011;74898;42.716;23.624;2024-02-26T13:09:18;17.77;;;7.40;;
84670;SDS011;74898;42.716;23.624;2024-02-26T13:11:44;11.10;;;6.78;;
84670;SDS011;74898;42.716;23.624;2024-02-26T13:14:22;8.25;;;5.85;;
84670;SDS011;74898;42.716;23.624;2024-02-26T13:16:55;10.82;;;4.90;;
84670;SDS011;74898;42.716;23.624;2024-02-26T13:19:21;10.55;;;6.38;;
84670;SDS011;74898;42.716;23.624;2024-02-26T13:21:46;8.40;;;5.57;;
84670;SDS011;74898;42.716;23.624;2024-02-26T13:24:15;7.80;;;3.78;;
84670;SDS011;74898;42.716;23.624;2024-02-26T13:26:41;5.93;;;3.78;;
84670;SDS011;74898;42.716;23.624;2024-02-26T13:29:07;7.45;;;3.33;;
84670;SDS011;74898;42.716;23.624;2024-02-26T13:31:38;9.63;;;4.70;;
84670;SDS011;74898;42.716;23.624;2024-02-26T13:34:05;7.45;;;2.80;;
84670;SDS011;74898;42.716;23.624;2024-02-26T13:36:30;5.35;;;2.78;;
84670;SDS011;74898;42.716;23.624;2024-02-26T13:38:56;6.07;;;2.58;;
84670;SDS011;74898;42.716;23.624;2024-02-26T13:41:22;4.03;;;3.00;;
84670;SDS011;74898;42.716;23.624;2024-02-26T13:43:48;7.07;;;3.75;;
84670;SDS011;74898;42.716;23.624;2024-02-26T13:46:14;7.55;;;3.60;;
84670;SDS011;74898;42.716;23.624;2024-02-26T13:48:41;5.30;;;3.30;;
84670;SDS011;74898;42.716;23.624;2024-02-26T13:51:07;6.32;;;3.25;;
84670;SDS011;74898;42.716;23.624;2024-02-26T13:53:32;3.03;;;2.22;;
84670;SDS011;74898;42.716;23.624;2024-02-26T13:55:58;5.55;;;3.35;;
84670;SDS011;74898;42.716;23.624;2024-02-26T13:58:26;9.90;;;3.30;;
84670;SDS011;74898;42.716;23.624;2024-02-26T14:00:52;9.35;;;4.85;;
84670;SDS011;74898;42.716;23.624;2024-02-26T14:03:19;6.65;;;3.58;;
84670;SDS011;74898;42.716;23.624;2024-02-26T14:05:45;16.30;;;8.60;;
84670;SDS011;74898;42.716;23.624;2024-02-26T14:08:10;8.20;;;4.10;;
84670;SDS011;74898;42.716;23.624;2024-02-26T14:10:36;8.40;;;5.07;;
84670;SDS011;74898;42.716;23.624;2024-02-26T14:13:02;13.32;;;6.43;;
84670;SDS011;74898;42.716;23.624;2024-02-26T14:15:28;12.82;;;6.90;;
84670;SDS011;74898;42.716;23.624;2024-02-26T14:17:54;15.50;;;8.40;;
84670;SDS011;74898;42.716;23.624;2024-02-26T14:20:23;18.58;;;7.82;;
84670;SDS011;74898;42.716;23.624;2024-02-26T14:22:50;16.20;;;7.80;;
84670;SDS011;74898;42.716;23.624;2024-02-26T14:25:19;18.38;;;8.38;;
84670;SDS011;74898;42.716;23.624;2024-02-26T14:27:46;16.63;;;7.63;;
84670;SDS011;74898;42.716;23.624;2024-02-26T14:30:12;20.27;;;9.77;;
84670;SDS011;74898;42.716;23.624;2024-02-26T14:32:38;6.72;;;4.50;;
84670;SDS011;74898;42.716;23.624;2024-02-26T14:35:06;18.55;;;7.30;;